Strona główna
METAR-TAF:

METAR-TAF

Lotnisko :

Matagami, Quebec, Kanada

Szerokość geograficzna: 49-46N, Długość geograficzna: 077-49W, wysokość: 281 m

Aktualna obserwacja pogody

Raport powstał 1 godzina i 19 minut temu, godzina 01:00 UTC
Wiatr 3 kt od północny zachód
Temperatura -21°C
Wilgotność 77%
Ciśnienie 1016 hPa
Widzialność: 14.5 km
bezchmurnie

METAR: CYNM 170100Z AUTO 31003KT 9SM CLR M21/M24 A3001 RMK SLP194

czas: 21:19 (02:19 UTC)


TAF: brakujący

Obserwacja i prognoza pogody dla ponad 4000 lotnisk (raport METAR i TAF).

Dostępne stacje oznaczono żółtymi i czerwonymi punktami na mapie.

Najedź kursorem aby zobaczyć nazwę stacji.

Kliknij aby zobaczyć obserwacje i prognozy pogody.

Aby zmienić mapę: kliknij na zielony przycisk z czarnym krzyżykiem, aby powiększyć; na zielony przycisk z myślnikiem, aby pomniejszyć; na zielone strzałki, aby przejść do map sąsiednich.


METAR-TAF: